sensor_id;sensor_type;location;lat;lon;timestamp;temperature;humidity
48860;DHT22;34679;51.436;-2.518;2022-10-17T00:01:06;14.80;99.90
48860;DHT22;34679;51.436;-2.518;2022-10-17T00:03:33;14.70;99.90
48860;DHT22;34679;51.436;-2.518;2022-10-17T00:06:05;14.70;99.90
48860;DHT22;34679;51.436;-2.518;2022-10-17T00:08:31;14.70;99.90
48860;DHT22;34679;51.436;-2.518;2022-10-17T00:10:59;14.70;99.90
48860;DHT22;34679;51.436;-2.518;2022-10-17T00:13:25;14.70;99.90
48860;DHT22;34679;51.436;-2.518;2022-10-17T00:15:52;14.70;99.90
48860;DHT22;34679;51.436;-2.518;2022-10-17T00:18:18;14.70;99.90
48860;DHT22;34679;51.436;-2.518;2022-10-17T00:20:43;14.60;99.90
48860;DHT22;34679;51.436;-2.518;2022-10-17T00:23:09;14.60;99.90
48860;DHT22;34679;51.436;-2.518;2022-10-17T00:25:35;14.60;99.90
48860;DHT22;34679;51.436;-2.518;2022-10-17T00:28:02;14.60;99.90
48860;DHT22;34679;51.436;-2.518;2022-10-17T00:30:28;14.70;99.90
48860;DHT22;34679;51.436;-2.518;2022-10-17T00:32:53;14.60;99.90
48860;DHT22;34679;51.436;-2.518;2022-10-17T00:35:19;14.70;99.90
48860;DHT22;34679;51.436;-2.518;2022-10-17T00:37:45;14.70;99.90
48860;DHT22;34679;51.436;-2.518;2022-10-17T00:40:11;14.70;99.90
48860;DHT22;34679;51.436;-2.518;2022-10-17T00:42:36;14.70;99.90
48860;DHT22;34679;51.436;-2.518;2022-10-17T00:47:50;14.70;99.90
48860;DHT22;34679;51.436;-2.518;2022-10-17T00:50:17;14.70;99.90
48860;DHT22;34679;51.436;-2.518;2022-10-17T00:52:44;14.70;99.90
48860;DHT22;34679;51.436;-2.518;2022-10-17T00:55:24;14.70;99.90
48860;DHT22;34679;51.436;-2.518;2022-10-17T00:57:54;14.70;99.90
48860;DHT22;34679;51.436;-2.518;2022-10-17T01:00:20;14.70;99.90
48860;DHT22;34679;51.436;-2.518;2022-10-17T01:02:46;14.70;99.90
48860;DHT22;34679;51.436;-2.518;2022-10-17T01:05:13;14.80;99.90
48860;DHT22;34679;51.436;-2.518;2022-10-17T01:07:40;14.80;99.90
48860;DHT22;34679;51.436;-2.518;2022-10-17T01:10:07;14.80;99.90
48860;DHT22;34679;51.436;-2.518;2022-10-17T01:15:58;14.80;99.90
48860;DHT22;34679;51.436;-2.518;2022-10-17T01:18:37;14.80;99.90
48860;DHT22;34679;51.436;-2.518;2022-10-17T01:30:09;14.80;99.90
48860;DHT22;34679;51.436;-2.518;2022-10-17T01:32:57;14.80;99.90
48860;DHT22;34679;51.436;-2.518;2022-10-17T01:35:38;14.80;99.90
48860;DHT22;34679;51.436;-2.518;2022-10-17T01:38:09;14.80;99.90
48860;DHT22;34679;51.436;-2.518;2022-10-17T01:41:06;14.80;99.90
48860;DHT22;34679;51.436;-2.518;2022-10-17T01:46:42;14.90;99.90
48860;DHT22;34679;51.436;-2.518;2022-10-17T01:49:10;14.90;99.90
48860;DHT22;34679;51.436;-2.518;2022-10-17T01:51:46;14.90;99.90
48860;DHT22;34679;51.436;-2.518;2022-10-17T01:54:22;14.90;99.90
48860;DHT22;34679;51.436;-2.518;2022-10-17T01:56:52;14.90;99.90
48860;DHT22;34679;51.436;-2.518;2022-10-17T01:59:22;14.90;99.90
48860;DHT22;34679;51.436;-2.518;2022-10-17T02:01:52;14.90;99.90
48860;DHT22;34679;51.436;-2.518;2022-10-17T02:04:18;14.90;99.90
48860;DHT22;34679;51.436;-2.518;2022-10-17T02:06:44;14.90;99.90
48860;DHT22;34679;51.436;-2.518;2022-10-17T02:09:21;15.00;99.90
48860;DHT22;34679;51.436;-2.518;2022-10-17T02:12:06;14.90;99.90
48860;DHT22;34679;51.436;-2.518;2022-10-17T02:15:14;15.00;99.90
48860;DHT22;34679;51.436;-2.518;2022-10-17T02:20:39;15.00;99.90
48860;DHT22;34679;51.436;-2.518;2022-10-17T02:23:13;15.00;99.90
48860;DHT22;34679;51.436;-2.518;2022-10-17T02:29:01;15.00;99.90
48860;DHT22;34679;51.436;-2.518;2022-10-17T02:31:12;15.00;99.90
48860;DHT22;34679;51.436;-2.518;2022-10-17T02:33:44;15.00;99.90
48860;DHT22;34679;51.436;-2.518;2022-10-17T02:36:16;15.00;99.90
48860;DHT22;34679;51.436;-2.518;2022-10-17T02:38:44;14.90;99.90
48860;DHT22;34679;51.436;-2.518;2022-10-17T02:41:13;14.90;99.90
48860;DHT22;34679;51.436;-2.518;2022-10-17T02:43:40;14.90;99.90
48860;DHT22;34679;51.436;-2.518;2022-10-17T02:46:11;14.90;99.90
48860;DHT22;34679;51.436;-2.518;2022-10-17T02:48:40;14.90;99.90
48860;DHT22;34679;51.436;-2.518;2022-10-17T02:51:27;14.90;99.90
48860;DHT22;34679;51.436;-2.518;2022-10-17T02:57:35;14.90;99.90
48860;DHT22;34679;51.436;-2.518;2022-10-17T03:00:05;14.90;99.90
48860;DHT22;34679;51.436;-2.518;2022-10-17T03:02:43;14.90;99.90
48860;DHT22;34679;51.436;-2.518;2022-10-17T03:05:12;14.90;99.90
48860;DHT22;34679;51.436;-2.518;2022-10-17T03:07:38;14.90;99.90
48860;DHT22;34679;51.436;-2.518;2022-10-17T03:10:04;14.90;99.90
48860;DHT22;34679;51.436;-2.518;2022-10-17T03:12:30;14.90;99.90
48860;DHT22;34679;51.436;-2.518;2022-10-17T03:14:56;14.90;99.90
48860;DHT22;34679;51.436;-2.518;2022-10-17T03:17:21;14.90;99.90
48860;DHT22;34679;51.436;-2.518;2022-10-17T03:19:47;14.90;99.90
48860;DHT22;34679;51.436;-2.518;2022-10-17T03:22:13;14.80;99.90
48860;DHT22;34679;51.436;-2.518;2022-10-17T03:24:38;14.70;99.90
48860;DHT22;34679;51.436;-2.518;2022-10-17T03:27:04;14.70;99.90
48860;DHT22;34679;51.436;-2.518;2022-10-17T03:29:29;14.70;99.90
48860;DHT22;34679;51.436;-2.518;2022-10-17T03:31:55;14.70;99.90
48860;DHT22;34679;51.436;-2.518;2022-10-17T03:34:21;14.60;99.90
48860;DHT22;34679;51.436;-2.518;2022-10-17T03:36:46;14.60;99.90
48860;DHT22;34679;51.436;-2.518;2022-10-17T03:39:12;14.50;99.90
48860;DHT22;34679;51.436;-2.518;2022-10-17T03:41:38;14.50;99.90
48860;DHT22;34679;51.436;-2.518;2022-10-17T03:44:04;14.50;99.90
48860;DHT22;34679;51.436;-2.518;2022-10-17T03:46:29;14.40;99.90
48860;DHT22;34679;51.436;-2.518;2022-10-17T03:48:55;14.40;99.90
48860;DHT22;34679;51.436;-2.518;2022-10-17T03:51:21;14.40;99.90
48860;DHT22;34679;51.436;-2.518;2022-10-17T03:53:46;14.30;99.90
48860;DHT22;34679;51.436;-2.518;2022-10-17T03:58:42;14.30;99.90
48860;DHT22;34679;51.436;-2.518;2022-10-17T04:01:11;14.30;99.90
48860;DHT22;34679;51.436;-2.518;2022-10-17T04:03:36;14.30;99.90
48860;DHT22;34679;51.436;-2.518;2022-10-17T04:06:03;14.20;99.90
48860;DHT22;34679;51.436;-2.518;2022-10-17T04:08:30;14.10;99.90
48860;DHT22;34679;51.436;-2.518;2022-10-17T04:11:00;14.10;99.90
48860;DHT22;34679;51.436;-2.518;2022-10-17T04:13:27;14.10;99.90
48860;DHT22;34679;51.436;-2.518;2022-10-17T04:15:54;14.10;99.90
48860;DHT22;34679;51.436;-2.518;2022-10-17T04:18:20;14.10;99.90
48860;DHT22;34679;51.436;-2.518;2022-10-17T04:20:46;14.10;99.90
48860;DHT22;34679;51.436;-2.518;2022-10-17T04:23:12;14.10;99.90
48860;DHT22;34679;51.436;-2.518;2022-10-17T04:25:37;14.10;99.90
48860;DHT22;34679;51.436;-2.518;2022-10-17T04:28:03;14.00;99.90
48860;DHT22;34679;51.436;-2.518;2022-10-17T04:30:29;13.90;99.90
48860;DHT22;34679;51.436;-2.518;2022-10-17T04:32:54;13.80;99.90
48860;DHT22;34679;51.436;-2.518;2022-10-17T04:35:20;13.80;99.90
48860;DHT22;34679;51.436;-2.518;2022-10-17T04:37:46;13.70;99.90
48860;DHT22;34679;51.436;-2.518;2022-10-17T04:40:11;13.70;99.90
48860;DHT22;34679;51.436;-2.518;2022-10-17T04:42:37;13.60;99.90
48860;DHT22;34679;51.436;-2.518;2022-10-17T04:45:03;13.50;99.90
48860;DHT22;34679;51.436;-2.518;2022-10-17T04:47:29;13.50;99.90
48860;DHT22;34679;51.436;-2.518;2022-10-17T04:49:55;13.40;99.90
48860;DHT22;34679;51.436;-2.518;2022-10-17T04:52:21;13.30;99.90
48860;DHT22;34679;51.436;-2.518;2022-10-17T04:54:46;13.30;99.90
48860;DHT22;34679;51.436;-2.518;2022-10-17T04:57:12;13.20;99.90
48860;DHT22;34679;51.436;-2.518;2022-10-17T04:59:38;13.20;99.90
48860;DHT22;34679;51.436;-2.518;2022-10-17T05:02:04;13.20;99.90
48860;DHT22;34679;51.436;-2.518;2022-10-17T05:04:29;13.20;99.90
48860;DHT22;34679;51.436;-2.518;2022-10-17T05:06:55;13.20;99.90
48860;DHT22;34679;51.436;-2.518;2022-10-17T05:09:21;13.20;99.90
48860;DHT22;34679;51.436;-2.518;2022-10-17T05:11:47;13.20;99.90
48860;DHT22;34679;51.436;-2.518;2022-10-17T05:14:14;13.20;99.90
48860;DHT22;34679;51.436;-2.518;2022-10-17T05:16:40;13.10;99.90
48860;DHT22;34679;51.436;-2.518;2022-10-17T05:19:06;13.20;99.90
48860;DHT22;34679;51.436;-2.518;2022-10-17T05:21:31;13.20;99.90
48860;DHT22;34679;51.436;-2.518;2022-10-17T05:23:58;13.10;99.90
48860;DHT22;34679;51.436;-2.518;2022-10-17T05:26:24;13.10;99.90
48860;DHT22;34679;51.436;-2.518;2022-10-17T05:28:50;13.10;99.90
48860;DHT22;34679;51.436;-2.518;2022-10-17T05:31:17;13.10;99.90
48860;DHT22;34679;51.436;-2.518;2022-10-17T05:33:43;13.00;99.90
48860;DHT22;34679;51.436;-2.518;2022-10-17T05:36:09;13.00;99.90
48860;DHT22;34679;51.436;-2.518;2022-10-17T05:38:35;13.00;99.90
48860;DHT22;34679;51.436;-2.518;2022-10-17T05:41:02;12.90;99.90
48860;DHT22;34679;51.436;-2.518;2022-10-17T05:43:29;12.90;99.90
48860;DHT22;34679;51.436;-2.518;2022-10-17T05:45:55;13.00;99.90
48860;DHT22;34679;51.436;-2.518;2022-10-17T05:48:22;12.90;99.90
48860;DHT22;34679;51.436;-2.518;2022-10-17T05:50:48;12.90;99.90
48860;DHT22;34679;51.436;-2.518;2022-10-17T05:53:15;12.90;99.90
48860;DHT22;34679;51.436;-2.518;2022-10-17T05:55:41;12.90;99.90
48860;DHT22;34679;51.436;-2.518;2022-10-17T05:58:06;12.90;99.90
48860;DHT22;34679;51.436;-2.518;2022-10-17T06:00:32;13.00;99.90
48860;DHT22;34679;51.436;-2.518;2022-10-17T06:02:58;12.90;99.90
48860;DHT22;34679;51.436;-2.518;2022-10-17T06:05:23;12.80;99.90
48860;DHT22;34679;51.436;-2.518;2022-10-17T06:07:49;12.90;99.90
48860;DHT22;34679;51.436;-2.518;2022-10-17T06:10:17;12.90;99.90
48860;DHT22;34679;51.436;-2.518;2022-10-17T06:12:44;12.90;99.90
48860;DHT22;34679;51.436;-2.518;2022-10-17T06:15:10;13.00;99.90
48860;DHT22;34679;51.436;-2.518;2022-10-17T06:17:36;13.00;99.90
48860;DHT22;34679;51.436;-2.518;2022-10-17T06:20:03;13.00;99.90
48860;DHT22;34679;51.436;-2.518;2022-10-17T06:22:29;13.00;99.90
48860;DHT22;34679;51.436;-2.518;2022-10-17T06:24:54;13.00;99.90
48860;DHT22;34679;51.436;-2.518;2022-10-17T06:27:20;12.90;99.90
48860;DHT22;34679;51.436;-2.518;2022-10-17T06:29:46;13.00;99.90
48860;DHT22;34679;51.436;-2.518;2022-10-17T06:32:12;12.90;99.90
48860;DHT22;34679;51.436;-2.518;2022-10-17T06:34:38;13.00;99.90
48860;DHT22;34679;51.436;-2.518;2022-10-17T06:37:03;13.00;99.90
48860;DHT22;34679;51.436;-2.518;2022-10-17T06:39:29;13.00;99.90
48860;DHT22;34679;51.436;-2.518;2022-10-17T06:42:02;12.90;99.90
48860;DHT22;34679;51.436;-2.518;2022-10-17T06:44:28;12.90;99.90
48860;DHT22;34679;51.436;-2.518;2022-10-17T06:46:57;13.00;99.90
48860;DHT22;34679;51.436;-2.518;2022-10-17T06:49:23;13.00;99.90
48860;DHT22;34679;51.436;-2.518;2022-10-17T06:51:49;13.00;99.90
48860;DHT22;34679;51.436;-2.518;2022-10-17T06:54:15;12.90;99.90
48860;DHT22;34679;51.436;-2.518;2022-10-17T06:56:40;13.00;99.90
48860;DHT22;34679;51.436;-2.518;2022-10-17T06:59:07;13.00;99.90
48860;DHT22;34679;51.436;-2.518;2022-10-17T07:01:33;13.00;99.90
48860;DHT22;34679;51.436;-2.518;2022-10-17T07:03:59;13.00;99.90
48860;DHT22;34679;51.436;-2.518;2022-10-17T07:06:24;13.10;99.90
48860;DHT22;34679;51.436;-2.518;2022-10-17T07:08:50;13.10;99.90
48860;DHT22;34679;51.436;-2.518;2022-10-17T07:11:18;13.10;99.90
48860;DHT22;34679;51.436;-2.518;2022-10-17T07:13:45;13.10;99.90
48860;DHT22;34679;51.436;-2.518;2022-10-17T07:16:12;13.20;99.90
48860;DHT22;34679;51.436;-2.518;2022-10-17T07:18:38;13.20;99.90
48860;DHT22;34679;51.436;-2.518;2022-10-17T07:21:04;13.20;99.90
48860;DHT22;34679;51.436;-2.518;2022-10-17T07:23:30;13.30;99.90
48860;DHT22;34679;51.436;-2.518;2022-10-17T07:26:00;13.30;99.90
48860;DHT22;34679;51.436;-2.518;2022-10-17T07:28:27;13.40;99.90
48860;DHT22;34679;51.436;-2.518;2022-10-17T07:30:53;13.50;99.90
48860;DHT22;34679;51.436;-2.518;2022-10-17T07:33:19;13.50;99.90
48860;DHT22;34679;51.436;-2.518;2022-10-17T07:35:45;13.50;99.90
48860;DHT22;34679;51.436;-2.518;2022-10-17T07:38:10;13.60;99.90
48860;DHT22;34679;51.436;-2.518;2022-10-17T07:40:36;13.60;99.90
48860;DHT22;34679;51.436;-2.518;2022-10-17T07:43:02;13.70;99.90
48860;DHT22;34679;51.436;-2.518;2022-10-17T07:45:27;13.90;99.90
48860;DHT22;34679;51.436;-2.518;2022-10-17T07:47:57;14.00;99.90
48860;DHT22;34679;51.436;-2.518;2022-10-17T07:50:23;14.10;99.90
48860;DHT22;34679;51.436;-2.518;2022-10-17T07:52:49;14.20;99.90
48860;DHT22;34679;51.436;-2.518;2022-10-17T07:55:15;14.30;99.90
48860;DHT22;34679;51.436;-2.518;2022-10-17T07:57:40;14.40;99.90
48860;DHT22;34679;51.436;-2.518;2022-10-17T08:00:07;14.50;99.90
48860;DHT22;34679;51.436;-2.518;2022-10-17T08:02:33;14.60;99.90
48860;DHT22;34679;51.436;-2.518;2022-10-17T08:04:59;14.70;99.90
48860;DHT22;34679;51.436;-2.518;2022-10-17T08:07:24;14.80;99.90
48860;DHT22;34679;51.436;-2.518;2022-10-17T08:09:50;15.00;99.90
48860;DHT22;34679;51.436;-2.518;2022-10-17T08:12:16;15.20;99.90
48860;DHT22;34679;51.436;-2.518;2022-10-17T08:14:42;15.40;99.90
48860;DHT22;34679;51.436;-2.518;2022-10-17T08:17:09;15.40;99.90
48860;DHT22;34679;51.436;-2.518;2022-10-17T08:19:38;15.40;99.90
48860;DHT22;34679;51.436;-2.518;2022-10-17T08:22:05;15.40;99.90
48860;DHT22;34679;51.436;-2.518;2022-10-17T08:24:30;15.60;99.90
48860;DHT22;34679;51.436;-2.518;2022-10-17T08:26:56;16.00;99.90
48860;DHT22;34679;51.436;-2.518;2022-10-17T08:29:23;16.40;99.90
48860;DHT22;34679;51.436;-2.518;2022-10-17T08:31:49;16.60;99.90
48860;DHT22;34679;51.436;-2.518;2022-10-17T08:34:15;16.90;99.90
48860;DHT22;34679;51.436;-2.518;2022-10-17T08:36:41;17.10;99.90
48860;DHT22;34679;51.436;-2.518;2022-10-17T08:39:07;17.40;99.90
48860;DHT22;34679;51.436;-2.518;2022-10-17T08:44:38;18.20;99.90
48860;DHT22;34679;51.436;-2.518;2022-10-17T08:47:15;18.60;99.90
48860;DHT22;34679;51.436;-2.518;2022-10-17T08:49:47;19.20;99.90
48860;DHT22;34679;51.436;-2.518;2022-10-17T08:55:26;19.40;99.90
48860;DHT22;34679;51.436;-2.518;2022-10-17T08:57:53;19.90;99.90
48860;DHT22;34679;51.436;-2.518;2022-10-17T09:00:20;20.10;99.90
48860;DHT22;34679;51.436;-2.518;2022-10-17T09:03:15;20.00;99.90
48860;DHT22;34679;51.436;-2.518;2022-10-17T09:05:45;19.70;99.90
48860;DHT22;34679;51.436;-2.518;2022-10-17T09:08:38;19.60;99.90
48860;DHT22;34679;51.436;-2.518;2022-10-17T09:11:42;19.70;99.90
48860;DHT22;34679;51.436;-2.518;2022-10-17T09:17:37;20.00;99.90
48860;DHT22;34679;51.436;-2.518;2022-10-17T09:20:18;19.80;99.90
48860;DHT22;34679;51.436;-2.518;2022-10-17T09:22:46;20.00;99.90
48860;DHT22;34679;51.436;-2.518;2022-10-17T09:25:16;19.60;99.90
48860;DHT22;34679;51.436;-2.518;2022-10-17T09:32:58;18.90;99.90
48860;DHT22;34679;51.436;-2.518;2022-10-17T09:35:24;18.50;99.90
48860;DHT22;34679;51.436;-2.518;2022-10-17T09:37:51;17.90;99.90
48860;DHT22;34679;51.436;-2.518;2022-10-17T09:40:23;17.40;99.90
48860;DHT22;34679;51.436;-2.518;2022-10-17T09:42:49;17.10;99.90
48860;DHT22;34679;51.436;-2.518;2022-10-17T09:45:21;16.80;99.90
48860;DHT22;34679;51.436;-2.518;2022-10-17T09:48:11;16.60;99.90
48860;DHT22;34679;51.436;-2.518;2022-10-17T09:50:39;16.50;99.90
48860;DHT22;34679;51.436;-2.518;2022-10-17T09:53:12;16.40;99.90
48860;DHT22;34679;51.436;-2.518;2022-10-17T09:55:46;16.40;99.90
48860;DHT22;34679;51.436;-2.518;2022-10-17T09:58:13;16.50;99.90
48860;DHT22;34679;51.436;-2.518;2022-10-17T10:00:42;16.40;99.90
48860;DHT22;34679;51.436;-2.518;2022-10-17T10:03:19;16.40;99.90
48860;DHT22;34679;51.436;-2.518;2022-10-17T10:06:01;16.30;99.90
48860;DHT22;34679;51.436;-2.518;2022-10-17T10:08:34;16.30;99.90
48860;DHT22;34679;51.436;-2.518;2022-10-17T10:11:05;16.30;99.90
48860;DHT22;34679;51.436;-2.518;2022-10-17T10:13:32;16.30;99.90
48860;DHT22;34679;51.436;-2.518;2022-10-17T10:16:22;16.50;99.90
48860;DHT22;34679;51.436;-2.518;2022-10-17T10:18:49;16.50;99.90
48860;DHT22;34679;51.436;-2.518;2022-10-17T10:21:18;16.60;99.90
48860;DHT22;34679;51.436;-2.518;2022-10-17T10:26:39;16.40;99.90
48860;DHT22;34679;51.436;-2.518;2022-10-17T10:29:22;16.50;99.90
48860;DHT22;34679;51.436;-2.518;2022-10-17T10:31:49;16.50;99.90
48860;DHT22;34679;51.436;-2.518;2022-10-17T10:34:34;16.50;99.90
48860;DHT22;34679;51.436;-2.518;2022-10-17T10:37:03;16.60;99.90
48860;DHT22;34679;51.436;-2.518;2022-10-17T10:39:43;16.50;99.90
48860;DHT22;34679;51.436;-2.518;2022-10-17T10:44:50;16.60;99.90
48860;DHT22;34679;51.436;-2.518;2022-10-17T10:47:27;16.70;99.90
48860;DHT22;34679;51.436;-2.518;2022-10-17T10:50:19;16.70;99.90
48860;DHT22;34679;51.436;-2.518;2022-10-17T10:52:52;16.70;99.90
48860;DHT22;34679;51.436;-2.518;2022-10-17T10:55:26;16.80;99.90
48860;DHT22;34679;51.436;-2.518;2022-10-17T10:57:59;16.90;99.90
48860;DHT22;34679;51.436;-2.518;2022-10-17T11:00:26;17.00;99.90
48860;DHT22;34679;51.436;-2.518;2022-10-17T11:03:14;17.10;99.90
48860;DHT22;34679;51.436;-2.518;2022-10-17T11:05:48;17.10;99.90
48860;DHT22;34679;51.436;-2.518;2022-10-17T11:08:25;17.20;99.90
48860;DHT22;34679;51.436;-2.518;2022-10-17T11:11:35;17.30;99.90
48860;DHT22;34679;51.436;-2.518;2022-10-17T11:14:16;17.30;99.90
48860;DHT22;34679;51.436;-2.518;2022-10-17T11:16:55;17.20;99.90
48860;DHT22;34679;51.436;-2.518;2022-10-17T11:22:42;17.30;99.90
48860;DHT22;34679;51.436;-2.518;2022-10-17T11:27:37;17.30;99.90
48860;DHT22;34679;51.436;-2.518;2022-10-17T11:30:03;17.30;99.90
48860;DHT22;34679;51.436;-2.518;2022-10-17T11:32:48;17.50;99.90
48860;DHT22;34679;51.436;-2.518;2022-10-17T11:35:25;17.50;99.90
48860;DHT22;34679;51.436;-2.518;2022-10-17T11:40:41;17.40;99.90
48860;DHT22;34679;51.436;-2.518;2022-10-17T11:45:51;17.60;99.90
48860;DHT22;34679;51.436;-2.518;2022-10-17T11:48:27;18.00;99.90
48860;DHT22;34679;51.436;-2.518;2022-10-17T11:51:09;18.10;99.90
48860;DHT22;34679;51.436;-2.518;2022-10-17T11:54:01;18.40;99.90
48860;DHT22;34679;51.436;-2.518;2022-10-17T11:59:41;18.50;99.90
48860;DHT22;34679;51.436;-2.518;2022-10-17T12:02:23;18.60;99.90
48860;DHT22;34679;51.436;-2.518;2022-10-17T12:05:00;18.70;99.90
48860;DHT22;34679;51.436;-2.518;2022-10-17T12:10:34;18.90;99.90
48860;DHT22;34679;51.436;-2.518;2022-10-17T12:15:53;18.80;99.90
48860;DHT22;34679;51.436;-2.518;2022-10-17T12:18:18;18.50;99.90
48860;DHT22;34679;51.436;-2.518;2022-10-17T12:20:56;18.30;99.90
48860;DHT22;34679;51.436;-2.518;2022-10-17T12:23:27;18.20;99.90
48860;DHT22;34679;51.436;-2.518;2022-10-17T12:25:58;18.10;99.90
48860;DHT22;34679;51.436;-2.518;2022-10-17T12:28:44;17.90;99.90
48860;DHT22;34679;51.436;-2.518;2022-10-17T12:33:58;17.70;99.90
48860;DHT22;34679;51.436;-2.518;2022-10-17T12:49:46;17.90;99.90
48860;DHT22;34679;51.436;-2.518;2022-10-17T12:55:11;18.00;99.90
48860;DHT22;34679;51.436;-2.518;2022-10-17T12:57:52;18.10;99.90
48860;DHT22;34679;51.436;-2.518;2022-10-17T13:02:47;18.20;99.90
48860;DHT22;34679;51.436;-2.518;2022-10-17T13:05:35;18.30;99.90
48860;DHT22;34679;51.436;-2.518;2022-10-17T13:08:05;18.40;99.90
48860;DHT22;34679;51.436;-2.518;2022-10-17T13:10:34;18.50;99.90
48860;DHT22;34679;51.436;-2.518;2022-10-17T13:15:39;18.10;99.90
48860;DHT22;34679;51.436;-2.518;2022-10-17T13:18:04;18.10;99.90
48860;DHT22;34679;51.436;-2.518;2022-10-17T13:20:30;18.10;99.90
48860;DHT22;34679;51.436;-2.518;2022-10-17T13:22:57;18.10;99.90
48860;DHT22;34679;51.436;-2.518;2022-10-17T13:25:24;17.90;99.90
48860;DHT22;34679;51.436;-2.518;2022-10-17T13:28:03;17.70;99.90
48860;DHT22;34679;51.436;-2.518;2022-10-17T13:30:32;17.60;99.90
48860;DHT22;34679;51.436;-2.518;2022-10-17T13:32:59;17.70;99.90
48860;DHT22;34679;51.436;-2.518;2022-10-17T13:35:29;17.80;99.90
48860;DHT22;34679;51.436;-2.518;2022-10-17T13:37:55;17.70;99.90
48860;DHT22;34679;51.436;-2.518;2022-10-17T13:40:29;17.70;99.90
48860;DHT22;34679;51.436;-2.518;2022-10-17T13:42:57;17.80;99.90
48860;DHT22;34679;51.436;-2.518;2022-10-17T13:45:33;17.80;99.90
48860;DHT22;34679;51.436;-2.518;2022-10-17T13:48:21;17.90;99.90
48860;DHT22;34679;51.436;-2.518;2022-10-17T13:50:50;18.00;99.90
48860;DHT22;34679;51.436;-2.518;2022-10-17T13:53:49;18.00;99.90
48860;DHT22;34679;51.436;-2.518;2022-10-17T13:56:23;17.90;99.90
48860;DHT22;34679;51.436;-2.518;2022-10-17T13:58:59;17.90;99.90
48860;DHT22;34679;51.436;-2.518;2022-10-17T14:01:27;18.00;99.90
48860;DHT22;34679;51.436;-2.518;2022-10-17T14:03:53;17.90;99.90
48860;DHT22;34679;51.436;-2.518;2022-10-17T14:06:22;17.90;99.90
48860;DHT22;34679;51.436;-2.518;2022-10-17T14:11:35;17.80;99.90
48860;DHT22;34679;51.436;-2.518;2022-10-17T14:14:03;17.80;99.90
48860;DHT22;34679;51.436;-2.518;2022-10-17T14:16:36;17.90;99.90
48860;DHT22;34679;51.436;-2.518;2022-10-17T14:19:04;18.00;99.90
48860;DHT22;34679;51.436;-2.518;2022-10-17T14:21:31;17.90;99.90
48860;DHT22;34679;51.436;-2.518;2022-10-17T14:26:53;18.00;99.90
48860;DHT22;34679;51.436;-2.518;2022-10-17T14:29:26;17.90;99.90
48860;DHT22;34679;51.436;-2.518;2022-10-17T14:32:03;18.00;99.90
48860;DHT22;34679;51.436;-2.518;2022-10-17T14:34:33;17.90;99.90
48860;DHT22;34679;51.436;-2.518;2022-10-17T14:37:00;18.00;99.90
48860;DHT22;34679;51.436;-2.518;2022-10-17T14:39:26;18.10;99.90
48860;DHT22;34679;51.436;-2.518;2022-10-17T14:41:53;18.00;99.90
48860;DHT22;34679;51.436;-2.518;2022-10-17T14:44:31;17.90;99.90
48860;DHT22;34679;51.436;-2.518;2022-10-17T14:47:02;17.90;99.90
48860;DHT22;34679;51.436;-2.518;2022-10-17T14:49:39;18.00;99.90
48860;DHT22;34679;51.436;-2.518;2022-10-17T14:54:43;17.60;99.90
48860;DHT22;34679;51.436;-2.518;2022-10-17T14:57:25;17.40;99.90
48860;DHT22;34679;51.436;-2.518;2022-10-17T14:59:52;17.30;99.90
48860;DHT22;34679;51.436;-2.518;2022-10-17T15:02:19;17.20;99.90
48860;DHT22;34679;51.436;-2.518;2022-10-17T15:04:45;17.00;99.90
48860;DHT22;34679;51.436;-2.518;2022-10-17T15:07:15;16.90;99.90
48860;DHT22;34679;51.436;-2.518;2022-10-17T15:09:41;16.90;99.90
48860;DHT22;34679;51.436;-2.518;2022-10-17T15:12:15;16.90;99.90
48860;DHT22;34679;51.436;-2.518;2022-10-17T15:14:41;16.80;99.90
48860;DHT22;34679;51.436;-2.518;2022-10-17T15:17:19;16.70;99.90
48860;DHT22;34679;51.436;-2.518;2022-10-17T15:19:46;16.80;99.90
48860;DHT22;34679;51.436;-2.518;2022-10-17T15:22:12;16.80;99.90
48860;DHT22;34679;51.436;-2.518;2022-10-17T15:24:38;16.80;99.90
48860;DHT22;34679;51.436;-2.518;2022-10-17T15:27:39;16.80;99.90
48860;DHT22;34679;51.436;-2.518;2022-10-17T15:29:58;16.60;99.90
48860;DHT22;34679;51.436;-2.518;2022-10-17T15:32:23;16.60;99.90
48860;DHT22;34679;51.436;-2.518;2022-10-17T15:34:49;16.60;99.90
48860;DHT22;34679;51.436;-2.518;2022-10-17T15:37:21;16.60;99.90
48860;DHT22;34679;51.436;-2.518;2022-10-17T15:39:48;16.60;99.90
48860;DHT22;34679;51.436;-2.518;2022-10-17T15:42:17;16.70;99.90
48860;DHT22;34679;51.436;-2.518;2022-10-17T15:44:43;16.70;99.90
48860;DHT22;34679;51.436;-2.518;2022-10-17T15:47:23;16.60;99.90
48860;DHT22;34679;51.436;-2.518;2022-10-17T15:49:49;16.50;99.90
48860;DHT22;34679;51.436;-2.518;2022-10-17T15:52:15;16.50;99.90
48860;DHT22;34679;51.436;-2.518;2022-10-17T15:54:40;16.50;99.90
48860;DHT22;34679;51.436;-2.518;2022-10-17T15:57:21;16.50;99.90
48860;DHT22;34679;51.436;-2.518;2022-10-17T15:59:49;16.50;99.90
48860;DHT22;34679;51.436;-2.518;2022-10-17T16:02:16;16.50;99.90
48860;DHT22;34679;51.436;-2.518;2022-10-17T16:04:43;16.60;99.90
48860;DHT22;34679;51.436;-2.518;2022-10-17T16:07:09;16.50;99.90
48860;DHT22;34679;51.436;-2.518;2022-10-17T16:09:35;16.50;99.90
48860;DHT22;34679;51.436;-2.518;2022-10-17T16:12:06;16.60;99.90
48860;DHT22;34679;51.436;-2.518;2022-10-17T16:14:34;16.60;99.90
48860;DHT22;34679;51.436;-2.518;2022-10-17T16:17:00;16.60;99.90
48860;DHT22;34679;51.436;-2.518;2022-10-17T16:19:26;16.50;99.90
48860;DHT22;34679;51.436;-2.518;2022-10-17T16:21:55;16.50;99.90
48860;DHT22;34679;51.436;-2.518;2022-10-17T16:24:22;16.40;99.90
48860;DHT22;34679;51.436;-2.518;2022-10-17T16:26:48;16.40;99.90
48860;DHT22;34679;51.436;-2.518;2022-10-17T16:29:16;16.40;99.90
48860;DHT22;34679;51.436;-2.518;2022-10-17T16:31:43;16.30;99.90
48860;DHT22;34679;51.436;-2.518;2022-10-17T16:34:12;16.30;99.90
48860;DHT22;34679;51.436;-2.518;2022-10-17T16:36:38;16.20;99.90
48860;DHT22;34679;51.436;-2.518;2022-10-17T16:39:05;16.30;99.90
48860;DHT22;34679;51.436;-2.518;2022-10-17T16:41:31;16.20;99.90
48860;DHT22;34679;51.436;-2.518;2022-10-17T16:43:59;16.10;99.90
48860;DHT22;34679;51.436;-2.518;2022-10-17T16:46:27;16.00;99.90
48860;DHT22;34679;51.436;-2.518;2022-10-17T16:48:53;16.00;99.90
48860;DHT22;34679;51.436;-2.518;2022-10-17T16:51:19;16.00;99.90
48860;DHT22;34679;51.436;-2.518;2022-10-17T16:53:46;15.90;99.90
48860;DHT22;34679;51.436;-2.518;2022-10-17T16:56:17;15.90;99.90
48860;DHT22;34679;51.436;-2.518;2022-10-17T16:58:43;15.70;99.90
48860;DHT22;34679;51.436;-2.518;2022-10-17T17:01:16;15.60;99.90
48860;DHT22;34679;51.436;-2.518;2022-10-17T17:03:44;15.60;99.90
48860;DHT22;34679;51.436;-2.518;2022-10-17T17:06:22;15.40;99.90
48860;DHT22;34679;51.436;-2.518;2022-10-17T17:08:49;15.30;99.90
48860;DHT22;34679;51.436;-2.518;2022-10-17T17:11:16;15.20;99.90
48860;DHT22;34679;51.436;-2.518;2022-10-17T17:13:42;15.10;99.90